Terminal Aerodrome Forecast
Issued by NWS

Home | Current Version | Previous Version | Text Only | Print | Product List | Glossary Off
Versions: 1 2 3 4 5 6 7 8 9 10 11 12 13 14 15 16 17 18 19 20 21

000
FTUS43 KBIS 151720
TAFJMS
TAF
KJMS 151720Z 1518/1618 33018G26KT P6SM VCSH OVC017
     FM152000 33014KT P6SM BKN018
     FM160300 04006KT P6SM BKN015
     FM160800 12007KT P6SM BKN025
     FM161400 13015G23KT P6SM BKN040=

USA.gov is the U.S. government's official web portal to all federal, state and local government web resources and services.